KHHR

Jack Northrop Field / Hawthorne Municipal Airport

Hawthorne, California, USA
METAR KHHR 191053Z AUTO 00000KT 8SM CLR 11/11 A3017 RMK AO2 SLP215 T01110106 $
Observed Flight Rules
Dec-19 @ 10:53 UTC (53 minutes ago) Visual Flight Rules
Visibility Clouds
8 miles
  • Clear skies
Temperatures Readings
Current 11°C / 52°F
Dewpoint 11°C / 52°F
Humidity 100%
Altimeter 30.17" Hg
Pressure 1021.5 hPa
Elevation 18
METAR KHHR 191053Z AUTO 00000KT 8SM CLR 11/11 A3017 RMK AO2 SLP215 T01110106 $
Observed Flight Rules
Dec-19 @ 10:53 UTC
(53 minutes ago)
VFR
Clouds
  • Clear skies
Temperature Dewpoint
11°C / 52°F 11°C / 52°F
Humidity Altimeter Pressure
100% 30.17" Hg 1021.5 hPa